sensor_id;sensor_type;location;lat;lon;timestamp;temperature;humidity
25512;DHT22;13414;44.534;18.700;2023-07-13T00:00:23;22.50;99.90
25512;DHT22;13414;44.534;18.700;2023-07-13T00:02:51;22.50;99.90
25512;DHT22;13414;44.534;18.700;2023-07-13T00:05:19;22.50;99.90
25512;DHT22;13414;44.534;18.700;2023-07-13T00:07:48;22.40;99.90
25512;DHT22;13414;44.534;18.700;2023-07-13T00:10:16;22.30;99.90
25512;DHT22;13414;44.534;18.700;2023-07-13T00:12:44;22.20;99.90
25512;DHT22;13414;44.534;18.700;2023-07-13T00:15:16;22.10;99.90
25512;DHT22;13414;44.534;18.700;2023-07-13T00:17:48;22.00;99.90
25512;DHT22;13414;44.534;18.700;2023-07-13T00:20:16;22.00;99.90
25512;DHT22;13414;44.534;18.700;2023-07-13T00:22:43;21.90;99.90
25512;DHT22;13414;44.534;18.700;2023-07-13T00:25:12;22.00;99.90
25512;DHT22;13414;44.534;18.700;2023-07-13T00:27:41;22.10;99.90
25512;DHT22;13414;44.534;18.700;2023-07-13T00:30:09;22.10;99.90
25512;DHT22;13414;44.534;18.700;2023-07-13T00:32:37;22.00;99.90
25512;DHT22;13414;44.534;18.700;2023-07-13T00:35:06;21.90;99.90
25512;DHT22;13414;44.534;18.700;2023-07-13T00:37:34;21.90;99.90
25512;DHT22;13414;44.534;18.700;2023-07-13T00:40:02;21.80;99.90
25512;DHT22;13414;44.534;18.700;2023-07-13T00:42:31;21.70;99.90
25512;DHT22;13414;44.534;18.700;2023-07-13T00:45:06;21.90;99.90
25512;DHT22;13414;44.534;18.700;2023-07-13T00:47:34;21.80;99.90
25512;DHT22;13414;44.534;18.700;2023-07-13T00:50:03;21.80;99.90
25512;DHT22;13414;44.534;18.700;2023-07-13T00:52:31;21.90;99.90
25512;DHT22;13414;44.534;18.700;2023-07-13T00:54:59;21.90;99.90
25512;DHT22;13414;44.534;18.700;2023-07-13T00:57:27;21.80;99.90
25512;DHT22;13414;44.534;18.700;2023-07-13T00:59:59;21.80;99.90
25512;DHT22;13414;44.534;18.700;2023-07-13T01:02:33;21.60;99.90
25512;DHT22;13414;44.534;18.700;2023-07-13T01:05:01;21.50;99.90
25512;DHT22;13414;44.534;18.700;2023-07-13T01:07:28;21.40;99.90
25512;DHT22;13414;44.534;18.700;2023-07-13T01:09:57;21.40;99.90
25512;DHT22;13414;44.534;18.700;2023-07-13T01:12:24;21.40;99.90
25512;DHT22;13414;44.534;18.700;2023-07-13T01:14:59;21.40;99.90
25512;DHT22;13414;44.534;18.700;2023-07-13T01:17:27;21.40;99.90
25512;DHT22;13414;44.534;18.700;2023-07-13T01:19:55;21.50;99.90
25512;DHT22;13414;44.534;18.700;2023-07-13T01:22:24;21.50;99.90
25512;DHT22;13414;44.534;18.700;2023-07-13T01:24:53;21.50;99.90
25512;DHT22;13414;44.534;18.700;2023-07-13T01:27:23;21.50;99.90
25512;DHT22;13414;44.534;18.700;2023-07-13T01:29:52;21.40;99.90
25512;DHT22;13414;44.534;18.700;2023-07-13T01:32:28;21.30;99.90
25512;DHT22;13414;44.534;18.700;2023-07-13T01:34:57;21.40;99.90
25512;DHT22;13414;44.534;18.700;2023-07-13T01:37:26;21.30;99.90
25512;DHT22;13414;44.534;18.700;2023-07-13T01:39:58;21.30;99.90
25512;DHT22;13414;44.534;18.700;2023-07-13T01:42:26;21.10;99.90
25512;DHT22;13414;44.534;18.700;2023-07-13T01:44:55;21.00;99.90
25512;DHT22;13414;44.534;18.700;2023-07-13T01:47:22;20.90;99.90
25512;DHT22;13414;44.534;18.700;2023-07-13T01:49:52;20.90;99.90
25512;DHT22;13414;44.534;18.700;2023-07-13T01:52:20;20.80;99.90
25512;DHT22;13414;44.534;18.700;2023-07-13T01:54:49;20.70;99.90
25512;DHT22;13414;44.534;18.700;2023-07-13T01:57:16;20.70;99.90
25512;DHT22;13414;44.534;18.700;2023-07-13T01:59:44;20.60;99.90
25512;DHT22;13414;44.534;18.700;2023-07-13T02:02:11;20.60;99.90
25512;DHT22;13414;44.534;18.700;2023-07-13T02:04:38;20.70;99.90
25512;DHT22;13414;44.534;18.700;2023-07-13T02:07:06;20.70;99.90
25512;DHT22;13414;44.534;18.700;2023-07-13T02:09:34;20.80;99.90
25512;DHT22;13414;44.534;18.700;2023-07-13T02:12:03;20.70;99.90
25512;DHT22;13414;44.534;18.700;2023-07-13T02:14:33;20.60;99.90
25512;DHT22;13414;44.534;18.700;2023-07-13T02:17:00;20.60;99.90
25512;DHT22;13414;44.534;18.700;2023-07-13T02:19:28;20.60;99.90
25512;DHT22;13414;44.534;18.700;2023-07-13T02:21:56;20.60;99.90
25512;DHT22;13414;44.534;18.700;2023-07-13T02:24:23;20.60;99.90
25512;DHT22;13414;44.534;18.700;2023-07-13T02:26:51;20.50;99.90
25512;DHT22;13414;44.534;18.700;2023-07-13T02:29:21;20.30;99.90
25512;DHT22;13414;44.534;18.700;2023-07-13T02:31:48;20.20;99.90
25512;DHT22;13414;44.534;18.700;2023-07-13T02:34:16;20.10;99.90
25512;DHT22;13414;44.534;18.700;2023-07-13T02:36:43;20.00;99.90
25512;DHT22;13414;44.534;18.700;2023-07-13T02:39:13;19.90;99.90
25512;DHT22;13414;44.534;18.700;2023-07-13T02:41:41;20.00;99.90
25512;DHT22;13414;44.534;18.700;2023-07-13T02:44:09;20.10;99.90
25512;DHT22;13414;44.534;18.700;2023-07-13T02:46:38;20.10;99.90
25512;DHT22;13414;44.534;18.700;2023-07-13T02:49:06;20.00;99.90
25512;DHT22;13414;44.534;18.700;2023-07-13T02:51:33;20.10;99.90
25512;DHT22;13414;44.534;18.700;2023-07-13T02:54:01;20.00;99.90
25512;DHT22;13414;44.534;18.700;2023-07-13T02:56:30;20.00;99.90
25512;DHT22;13414;44.534;18.700;2023-07-13T02:58:58;20.00;99.90
25512;DHT22;13414;44.534;18.700;2023-07-13T03:01:26;20.10;99.90
25512;DHT22;13414;44.534;18.700;2023-07-13T03:03:55;19.90;99.90
25512;DHT22;13414;44.534;18.700;2023-07-13T03:06:22;20.00;99.90
25512;DHT22;13414;44.534;18.700;2023-07-13T03:08:53;19.90;99.90
25512;DHT22;13414;44.534;18.700;2023-07-13T03:11:22;19.80;99.90
25512;DHT22;13414;44.534;18.700;2023-07-13T03:14:00;19.80;99.90
25512;DHT22;13414;44.534;18.700;2023-07-13T03:16:31;19.70;99.90
25512;DHT22;13414;44.534;18.700;2023-07-13T03:19:00;19.70;99.90
25512;DHT22;13414;44.534;18.700;2023-07-13T03:21:29;19.80;99.90
25512;DHT22;13414;44.534;18.700;2023-07-13T03:23:56;19.90;99.90
25512;DHT22;13414;44.534;18.700;2023-07-13T03:26:23;19.90;99.90
25512;DHT22;13414;44.534;18.700;2023-07-13T03:28:52;19.90;99.90
25512;DHT22;13414;44.534;18.700;2023-07-13T03:31:34;19.90;99.90
25512;DHT22;13414;44.534;18.700;2023-07-13T03:34:03;19.90;99.90
25512;DHT22;13414;44.534;18.700;2023-07-13T03:36:31;20.00;99.90
25512;DHT22;13414;44.534;18.700;2023-07-13T03:39:04;20.20;99.90
25512;DHT22;13414;44.534;18.700;2023-07-13T03:41:41;20.00;99.90
25512;DHT22;13414;44.534;18.700;2023-07-13T03:44:09;20.00;99.90
25512;DHT22;13414;44.534;18.700;2023-07-13T03:46:36;20.10;99.90
25512;DHT22;13414;44.534;18.700;2023-07-13T03:49:05;20.10;99.90
25512;DHT22;13414;44.534;18.700;2023-07-13T03:51:33;20.20;99.90
25512;DHT22;13414;44.534;18.700;2023-07-13T03:54:01;20.20;99.90
25512;DHT22;13414;44.534;18.700;2023-07-13T03:56:29;20.20;99.90
25512;DHT22;13414;44.534;18.700;2023-07-13T03:59:00;20.20;99.90
25512;DHT22;13414;44.534;18.700;2023-07-13T04:01:29;20.40;99.90
25512;DHT22;13414;44.534;18.700;2023-07-13T04:03:57;20.60;99.90
25512;DHT22;13414;44.534;18.700;2023-07-13T04:06:29;20.70;99.90
25512;DHT22;13414;44.534;18.700;2023-07-13T04:08:58;20.90;99.90
25512;DHT22;13414;44.534;18.700;2023-07-13T04:11:31;21.00;99.90
25512;DHT22;13414;44.534;18.700;2023-07-13T04:13:59;21.30;99.90
25512;DHT22;13414;44.534;18.700;2023-07-13T04:16:27;21.50;99.90
25512;DHT22;13414;44.534;18.700;2023-07-13T04:18:54;21.80;99.90
25512;DHT22;13414;44.534;18.700;2023-07-13T04:21:27;22.40;99.90
25512;DHT22;13414;44.534;18.700;2023-07-13T04:23:55;22.60;99.90
25512;DHT22;13414;44.534;18.700;2023-07-13T04:26:23;22.60;99.90
25512;DHT22;13414;44.534;18.700;2023-07-13T04:28:53;22.50;99.90
25512;DHT22;13414;44.534;18.700;2023-07-13T04:31:21;22.70;99.90
25512;DHT22;13414;44.534;18.700;2023-07-13T04:33:48;23.20;99.90
25512;DHT22;13414;44.534;18.700;2023-07-13T04:36:17;23.30;99.90
25512;DHT22;13414;44.534;18.700;2023-07-13T04:38:45;23.90;99.90
25512;DHT22;13414;44.534;18.700;2023-07-13T04:41:14;24.60;99.90
25512;DHT22;13414;44.534;18.700;2023-07-13T04:43:44;24.50;99.90
25512;DHT22;13414;44.534;18.700;2023-07-13T04:46:13;24.70;99.90
25512;DHT22;13414;44.534;18.700;2023-07-13T04:48:41;24.90;99.90
25512;DHT22;13414;44.534;18.700;2023-07-13T04:51:09;24.60;99.90
25512;DHT22;13414;44.534;18.700;2023-07-13T04:53:37;24.30;99.90
25512;DHT22;13414;44.534;18.700;2023-07-13T04:56:06;24.20;99.90
25512;DHT22;13414;44.534;18.700;2023-07-13T04:58:34;24.90;99.90
25512;DHT22;13414;44.534;18.700;2023-07-13T05:01:02;25.50;99.90
25512;DHT22;13414;44.534;18.700;2023-07-13T05:03:30;25.90;99.90
25512;DHT22;13414;44.534;18.700;2023-07-13T05:05:58;26.10;99.90
25512;DHT22;13414;44.534;18.700;2023-07-13T05:08:26;26.80;99.90
25512;DHT22;13414;44.534;18.700;2023-07-13T05:10:53;27.50;99.90
25512;DHT22;13414;44.534;18.700;2023-07-13T05:13:22;28.30;99.90
25512;DHT22;13414;44.534;18.700;2023-07-13T05:15:56;27.90;99.90
25512;DHT22;13414;44.534;18.700;2023-07-13T05:18:23;28.70;99.90
25512;DHT22;13414;44.534;18.700;2023-07-13T05:20:58;29.40;99.90
25512;DHT22;13414;44.534;18.700;2023-07-13T05:23:26;29.90;99.90
25512;DHT22;13414;44.534;18.700;2023-07-13T05:25:53;29.90;99.90
25512;DHT22;13414;44.534;18.700;2023-07-13T05:28:22;29.80;99.90
25512;DHT22;13414;44.534;18.700;2023-07-13T05:30:50;30.30;99.90
25512;DHT22;13414;44.534;18.700;2023-07-13T05:33:18;30.70;99.90
25512;DHT22;13414;44.534;18.700;2023-07-13T05:35:45;31.50;99.90
25512;DHT22;13414;44.534;18.700;2023-07-13T05:38:13;32.30;99.90
25512;DHT22;13414;44.534;18.700;2023-07-13T05:40:42;32.70;99.90
25512;DHT22;13414;44.534;18.700;2023-07-13T05:43:10;32.70;99.90
25512;DHT22;13414;44.534;18.700;2023-07-13T05:45:39;32.70;99.90
25512;DHT22;13414;44.534;18.700;2023-07-13T05:48:07;32.80;99.90
25512;DHT22;13414;44.534;18.700;2023-07-13T05:50:34;33.10;99.90
25512;DHT22;13414;44.534;18.700;2023-07-13T05:53:03;33.40;99.90
25512;DHT22;13414;44.534;18.700;2023-07-13T05:55:30;34.00;99.90
25512;DHT22;13414;44.534;18.700;2023-07-13T05:57:58;34.70;99.90
25512;DHT22;13414;44.534;18.700;2023-07-13T06:00:26;35.20;99.90
25512;DHT22;13414;44.534;18.700;2023-07-13T06:02:56;35.60;99.90
25512;DHT22;13414;44.534;18.700;2023-07-13T06:05:24;35.80;99.90
25512;DHT22;13414;44.534;18.700;2023-07-13T06:07:53;35.90;99.90
25512;DHT22;13414;44.534;18.700;2023-07-13T06:10:20;35.60;99.90
25512;DHT22;13414;44.534;18.700;2023-07-13T06:12:48;35.40;99.90
25512;DHT22;13414;44.534;18.700;2023-07-13T06:15:18;34.50;99.90
25512;DHT22;13414;44.534;18.700;2023-07-13T06:17:47;33.90;99.90
25512;DHT22;13414;44.534;18.700;2023-07-13T06:20:16;32.60;99.90
25512;DHT22;13414;44.534;18.700;2023-07-13T06:22:43;31.30;99.90
25512;DHT22;13414;44.534;18.700;2023-07-13T06:25:10;30.70;99.90
25512;DHT22;13414;44.534;18.700;2023-07-13T06:27:38;30.80;99.90
25512;DHT22;13414;44.534;18.700;2023-07-13T06:30:06;31.20;99.90
25512;DHT22;13414;44.534;18.700;2023-07-13T06:32:34;31.60;99.90
25512;DHT22;13414;44.534;18.700;2023-07-13T06:35:01;31.80;99.90
25512;DHT22;13414;44.534;18.700;2023-07-13T06:37:30;31.90;99.90
25512;DHT22;13414;44.534;18.700;2023-07-13T06:39:59;31.70;99.90
25512;DHT22;13414;44.534;18.700;2023-07-13T06:42:26;31.20;99.90
25512;DHT22;13414;44.534;18.700;2023-07-13T06:44:54;30.80;99.90
25512;DHT22;13414;44.534;18.700;2023-07-13T06:47:21;30.90;99.90
25512;DHT22;13414;44.534;18.700;2023-07-13T06:49:48;31.00;99.90
25512;DHT22;13414;44.534;18.700;2023-07-13T06:52:16;31.00;99.90
25512;DHT22;13414;44.534;18.700;2023-07-13T06:54:44;31.00;99.90
25512;DHT22;13414;44.534;18.700;2023-07-13T06:57:12;31.00;99.90
25512;DHT22;13414;44.534;18.700;2023-07-13T06:59:40;30.90;99.90
25512;DHT22;13414;44.534;18.700;2023-07-13T07:02:09;31.10;99.90
25512;DHT22;13414;44.534;18.700;2023-07-13T07:04:37;31.40;99.90
25512;DHT22;13414;44.534;18.700;2023-07-13T07:07:05;31.50;99.90
25512;DHT22;13414;44.534;18.700;2023-07-13T07:09:32;31.60;99.90
25512;DHT22;13414;44.534;18.700;2023-07-13T07:12:01;31.90;99.90
25512;DHT22;13414;44.534;18.700;2023-07-13T07:14:29;32.00;99.90
25512;DHT22;13414;44.534;18.700;2023-07-13T07:16:56;31.80;99.90
25512;DHT22;13414;44.534;18.700;2023-07-13T07:19:24;31.80;99.90
25512;DHT22;13414;44.534;18.700;2023-07-13T07:21:52;32.00;99.90
25512;DHT22;13414;44.534;18.700;2023-07-13T07:24:19;32.20;99.90
25512;DHT22;13414;44.534;18.700;2023-07-13T07:26:46;32.50;99.90
25512;DHT22;13414;44.534;18.700;2023-07-13T07:29:15;32.60;99.90
25512;DHT22;13414;44.534;18.700;2023-07-13T07:31:43;32.70;99.90
25512;DHT22;13414;44.534;18.700;2023-07-13T07:34:10;33.00;99.90
25512;DHT22;13414;44.534;18.700;2023-07-13T07:36:37;33.10;99.90
25512;DHT22;13414;44.534;18.700;2023-07-13T07:39:05;33.30;99.90
25512;DHT22;13414;44.534;18.700;2023-07-13T07:41:32;33.50;99.90
25512;DHT22;13414;44.534;18.700;2023-07-13T07:44:00;33.70;99.90
25512;DHT22;13414;44.534;18.700;2023-07-13T07:46:29;33.90;99.90
25512;DHT22;13414;44.534;18.700;2023-07-13T07:48:56;33.90;99.90
25512;DHT22;13414;44.534;18.700;2023-07-13T07:51:23;34.00;99.90
25512;DHT22;13414;44.534;18.700;2023-07-13T07:53:51;33.70;99.90
25512;DHT22;13414;44.534;18.700;2023-07-13T07:56:18;33.50;99.90
25512;DHT22;13414;44.534;18.700;2023-07-13T07:58:46;33.50;99.90
25512;DHT22;13414;44.534;18.700;2023-07-13T08:01:13;33.60;99.90
25512;DHT22;13414;44.534;18.700;2023-07-13T08:03:43;33.10;99.90
25512;DHT22;13414;44.534;18.700;2023-07-13T08:06:10;33.30;99.90
25512;DHT22;13414;44.534;18.700;2023-07-13T08:08:38;33.30;99.90
25512;DHT22;13414;44.534;18.700;2023-07-13T08:11:06;33.00;99.90
25512;DHT22;13414;44.534;18.700;2023-07-13T08:13:34;33.00;99.90
25512;DHT22;13414;44.534;18.700;2023-07-13T08:16:03;33.20;99.90
25512;DHT22;13414;44.534;18.700;2023-07-13T08:18:31;33.40;99.90
25512;DHT22;13414;44.534;18.700;2023-07-13T08:21:03;33.40;99.90
25512;DHT22;13414;44.534;18.700;2023-07-13T08:23:30;33.60;99.90
25512;DHT22;13414;44.534;18.700;2023-07-13T08:25:58;33.60;99.90
25512;DHT22;13414;44.534;18.700;2023-07-13T08:28:28;33.50;99.90
25512;DHT22;13414;44.534;18.700;2023-07-13T08:30:55;33.60;99.90
25512;DHT22;13414;44.534;18.700;2023-07-13T08:33:27;33.70;99.90
25512;DHT22;13414;44.534;18.700;2023-07-13T08:35:54;33.80;99.90
25512;DHT22;13414;44.534;18.700;2023-07-13T08:38:23;33.60;99.90
25512;DHT22;13414;44.534;18.700;2023-07-13T08:40:53;33.80;99.90
25512;DHT22;13414;44.534;18.700;2023-07-13T08:43:25;33.80;99.90
25512;DHT22;13414;44.534;18.700;2023-07-13T08:45:55;33.80;99.90
25512;DHT22;13414;44.534;18.700;2023-07-13T08:48:27;33.40;99.90
25512;DHT22;13414;44.534;18.700;2023-07-13T08:50:58;33.50;99.90
25512;DHT22;13414;44.534;18.700;2023-07-13T08:53:34;33.60;99.90
25512;DHT22;13414;44.534;18.700;2023-07-13T08:56:07;33.70;99.90
25512;DHT22;13414;44.534;18.700;2023-07-13T08:58:37;33.80;99.90
25512;DHT22;13414;44.534;18.700;2023-07-13T09:01:12;34.00;99.90
25512;DHT22;13414;44.534;18.700;2023-07-13T09:03:56;34.00;99.90
25512;DHT22;13414;44.534;18.700;2023-07-13T09:06:33;34.10;99.90
25512;DHT22;13414;44.534;18.700;2023-07-13T09:09:09;34.00;99.90
25512;DHT22;13414;44.534;18.700;2023-07-13T09:11:47;34.00;99.90
25512;DHT22;13414;44.534;18.700;2023-07-13T09:14:31;34.00;99.90
25512;DHT22;13414;44.534;18.700;2023-07-13T09:17:02;33.90;99.90
25512;DHT22;13414;44.534;18.700;2023-07-13T09:19:32;34.00;99.90
25512;DHT22;13414;44.534;18.700;2023-07-13T09:22:03;33.90;99.90
25512;DHT22;13414;44.534;18.700;2023-07-13T09:24:37;33.90;99.90
25512;DHT22;13414;44.534;18.700;2023-07-13T09:27:11;33.90;99.90
25512;DHT22;13414;44.534;18.700;2023-07-13T09:29:47;34.30;99.90
25512;DHT22;13414;44.534;18.700;2023-07-13T09:32:18;34.10;99.90
25512;DHT22;13414;44.534;18.700;2023-07-13T09:34:52;34.10;99.90
25512;DHT22;13414;44.534;18.700;2023-07-13T09:37:22;34.10;99.90
25512;DHT22;13414;44.534;18.700;2023-07-13T09:39:52;34.20;99.90
25512;DHT22;13414;44.534;18.700;2023-07-13T09:42:22;34.10;99.90
25512;DHT22;13414;44.534;18.700;2023-07-13T09:44:53;34.20;99.90
25512;DHT22;13414;44.534;18.700;2023-07-13T09:47:23;34.30;99.90
25512;DHT22;13414;44.534;18.700;2023-07-13T09:49:57;34.20;99.90
25512;DHT22;13414;44.534;18.700;2023-07-13T09:52:26;34.30;99.90
25512;DHT22;13414;44.534;18.700;2023-07-13T09:54:55;34.00;99.90
25512;DHT22;13414;44.534;18.700;2023-07-13T09:57:27;34.00;99.90
25512;DHT22;13414;44.534;18.700;2023-07-13T09:59:55;34.10;99.90
25512;DHT22;13414;44.534;18.700;2023-07-13T10:02:27;34.00;99.90
25512;DHT22;13414;44.534;18.700;2023-07-13T10:04:57;34.00;99.90
25512;DHT22;13414;44.534;18.700;2023-07-13T10:07:25;34.10;99.90
25512;DHT22;13414;44.534;18.700;2023-07-13T10:09:53;34.30;99.90
25512;DHT22;13414;44.534;18.700;2023-07-13T10:12:23;34.30;99.90
25512;DHT22;13414;44.534;18.700;2023-07-13T10:14:52;34.30;99.90
25512;DHT22;13414;44.534;18.700;2023-07-13T10:17:27;34.40;99.90
25512;DHT22;13414;44.534;18.700;2023-07-13T10:19:59;34.50;99.90
25512;DHT22;13414;44.534;18.700;2023-07-13T10:22:37;34.60;99.90
25512;DHT22;13414;44.534;18.700;2023-07-13T10:25:17;34.60;99.90
25512;DHT22;13414;44.534;18.700;2023-07-13T10:27:47;34.70;99.90
25512;DHT22;13414;44.534;18.700;2023-07-13T10:30:19;34.70;99.90
25512;DHT22;13414;44.534;18.700;2023-07-13T10:32:49;34.70;99.90
25512;DHT22;13414;44.534;18.700;2023-07-13T10:35:19;34.70;99.90
25512;DHT22;13414;44.534;18.700;2023-07-13T10:37:50;34.40;99.90
25512;DHT22;13414;44.534;18.700;2023-07-13T10:40:28;34.20;99.90
25512;DHT22;13414;44.534;18.700;2023-07-13T10:43:04;34.30;99.90
25512;DHT22;13414;44.534;18.700;2023-07-13T10:45:35;34.40;99.90
25512;DHT22;13414;44.534;18.700;2023-07-13T10:48:04;34.50;99.90
25512;DHT22;13414;44.534;18.700;2023-07-13T10:50:37;34.70;99.90
25512;DHT22;13414;44.534;18.700;2023-07-13T10:53:19;34.70;99.90
25512;DHT22;13414;44.534;18.700;2023-07-13T10:55:59;34.30;99.90
25512;DHT22;13414;44.534;18.700;2023-07-13T10:58:34;34.20;99.90
25512;DHT22;13414;44.534;18.700;2023-07-13T11:01:11;34.20;99.90
25512;DHT22;13414;44.534;18.700;2023-07-13T11:03:48;34.40;99.90
25512;DHT22;13414;44.534;18.700;2023-07-13T11:06:29;34.50;99.90
25512;DHT22;13414;44.534;18.700;2023-07-13T11:09:17;34.60;99.90
25512;DHT22;13414;44.534;18.700;2023-07-13T11:11:45;34.80;99.90
25512;DHT22;13414;44.534;18.700;2023-07-13T11:14:34;34.80;99.90
25512;DHT22;13414;44.534;18.700;2023-07-13T11:17:36;34.60;99.90
25512;DHT22;13414;44.534;18.700;2023-07-13T11:20:19;34.70;99.90
25512;DHT22;13414;44.534;18.700;2023-07-13T11:22:49;34.70;99.90
25512;DHT22;13414;44.534;18.700;2023-07-13T11:25:28;34.50;99.90
25512;DHT22;13414;44.534;18.700;2023-07-13T11:30:50;34.40;99.90
25512;DHT22;13414;44.534;18.700;2023-07-13T11:33:44;34.40;99.90
25512;DHT22;13414;44.534;18.700;2023-07-13T11:36:14;34.30;99.90
25512;DHT22;13414;44.534;18.700;2023-07-13T11:38:43;34.40;99.90
25512;DHT22;13414;44.534;18.700;2023-07-13T11:41:16;34.60;99.90
25512;DHT22;13414;44.534;18.700;2023-07-13T11:43:44;34.90;99.90
25512;DHT22;13414;44.534;18.700;2023-07-13T11:46:20;35.20;99.90
25512;DHT22;13414;44.534;18.700;2023-07-13T11:48:49;35.20;99.90
25512;DHT22;13414;44.534;18.700;2023-07-13T11:51:21;35.50;99.90
25512;DHT22;13414;44.534;18.700;2023-07-13T11:53:51;35.80;99.90
25512;DHT22;13414;44.534;18.700;2023-07-13T11:56:19;36.20;99.90
25512;DHT22;13414;44.534;18.700;2023-07-13T11:58:49;36.70;99.90
25512;DHT22;13414;44.534;18.700;2023-07-13T12:01:23;36.50;99.90
25512;DHT22;13414;44.534;18.700;2023-07-13T12:03:52;36.50;99.90
25512;DHT22;13414;44.534;18.700;2023-07-13T12:06:25;36.50;99.90
25512;DHT22;13414;44.534;18.700;2023-07-13T12:08:56;36.30;99.90
25512;DHT22;13414;44.534;18.700;2023-07-13T12:11:24;36.30;99.90
25512;DHT22;13414;44.534;18.700;2023-07-13T12:13:52;36.40;99.90
25512;DHT22;13414;44.534;18.700;2023-07-13T12:16:27;36.50;99.90
25512;DHT22;13414;44.534;18.700;2023-07-13T12:18:56;36.10;99.90
25512;DHT22;13414;44.534;18.700;2023-07-13T12:21:30;36.00;99.90
25512;DHT22;13414;44.534;18.700;2023-07-13T12:23:59;36.00;99.90
25512;DHT22;13414;44.534;18.700;2023-07-13T12:26:28;36.00;99.90
25512;DHT22;13414;44.534;18.700;2023-07-13T12:28:59;35.80;99.90
25512;DHT22;13414;44.534;18.700;2023-07-13T12:31:33;35.70;99.90
25512;DHT22;13414;44.534;18.700;2023-07-13T12:34:03;35.60;99.90
25512;DHT22;13414;44.534;18.700;2023-07-13T12:36:33;35.50;99.90
25512;DHT22;13414;44.534;18.700;2023-07-13T12:39:13;35.60;99.90
25512;DHT22;13414;44.534;18.700;2023-07-13T12:41:41;35.80;99.90
25512;DHT22;13414;44.534;18.700;2023-07-13T12:44:15;36.10;99.90
25512;DHT22;13414;44.534;18.700;2023-07-13T12:47:02;36.30;99.90
25512;DHT22;13414;44.534;18.700;2023-07-13T12:49:31;36.30;99.90
25512;DHT22;13414;44.534;18.700;2023-07-13T12:52:02;36.10;99.90
25512;DHT22;13414;44.534;18.700;2023-07-13T12:54:31;35.70;99.90
25512;DHT22;13414;44.534;18.700;2023-07-13T12:56:59;35.30;99.90
25512;DHT22;13414;44.534;18.700;2023-07-13T12:59:32;34.90;99.90
25512;DHT22;13414;44.534;18.700;2023-07-13T13:02:21;34.60;99.90
25512;DHT22;13414;44.534;18.700;2023-07-13T13:04:49;34.40;99.90
25512;DHT22;13414;44.534;18.700;2023-07-13T13:07:17;34.40;99.90
25512;DHT22;13414;44.534;18.700;2023-07-13T13:09:46;34.10;99.90
25512;DHT22;13414;44.534;18.700;2023-07-13T13:12:14;33.70;99.90
25512;DHT22;13414;44.534;18.700;2023-07-13T13:14:43;33.80;99.90
25512;DHT22;13414;44.534;18.700;2023-07-13T13:17:18;34.10;99.90
25512;DHT22;13414;44.534;18.700;2023-07-13T13:19:47;34.10;99.90
25512;DHT22;13414;44.534;18.700;2023-07-13T13:22:15;34.00;99.90
25512;DHT22;13414;44.534;18.700;2023-07-13T13:24:43;33.90;99.90
25512;DHT22;13414;44.534;18.700;2023-07-13T13:27:15;33.90;99.90
25512;DHT22;13414;44.534;18.700;2023-07-13T13:29:44;34.00;99.90
25512;DHT22;13414;44.534;18.700;2023-07-13T13:32:14;33.80;99.90
25512;DHT22;13414;44.534;18.700;2023-07-13T13:34:42;33.70;99.90
25512;DHT22;13414;44.534;18.700;2023-07-13T13:37:20;33.60;99.90
25512;DHT22;13414;44.534;18.700;2023-07-13T13:39:49;33.60;99.90
25512;DHT22;13414;44.534;18.700;2023-07-13T13:42:17;33.20;99.90
25512;DHT22;13414;44.534;18.700;2023-07-13T13:44:47;33.10;99.90
25512;DHT22;13414;44.534;18.700;2023-07-13T13:47:25;33.00;99.90
25512;DHT22;13414;44.534;18.700;2023-07-13T13:49:57;33.00;99.90
25512;DHT22;13414;44.534;18.700;2023-07-13T13:52:25;32.90;99.90
25512;DHT22;13414;44.534;18.700;2023-07-13T13:54:52;33.00;99.90
25512;DHT22;13414;44.534;18.700;2023-07-13T13:57:23;33.10;99.90
25512;DHT22;13414;44.534;18.700;2023-07-13T13:59:50;33.00;99.90
25512;DHT22;13414;44.534;18.700;2023-07-13T14:02:28;33.00;99.90
25512;DHT22;13414;44.534;18.700;2023-07-13T14:04:59;33.20;99.90
25512;DHT22;13414;44.534;18.700;2023-07-13T14:07:28;33.20;99.90
25512;DHT22;13414;44.534;18.700;2023-07-13T14:09:58;33.30;99.90
25512;DHT22;13414;44.534;18.700;2023-07-13T14:12:27;33.40;99.90
25512;DHT22;13414;44.534;18.700;2023-07-13T14:14:56;33.50;99.90
25512;DHT22;13414;44.534;18.700;2023-07-13T14:17:27;33.50;99.90
25512;DHT22;13414;44.534;18.700;2023-07-13T14:19:54;33.50;99.90
25512;DHT22;13414;44.534;18.700;2023-07-13T14:22:24;33.40;99.90
25512;DHT22;13414;44.534;18.700;2023-07-13T14:24:52;33.40;99.90
25512;DHT22;13414;44.534;18.700;2023-07-13T14:27:20;33.40;99.90
25512;DHT22;13414;44.534;18.700;2023-07-13T14:29:48;33.30;99.90
25512;DHT22;13414;44.534;18.700;2023-07-13T14:32:17;33.30;99.90
25512;DHT22;13414;44.534;18.700;2023-07-13T14:34:46;33.40;99.90
25512;DHT22;13414;44.534;18.700;2023-07-13T14:37:14;33.40;99.90
25512;DHT22;13414;44.534;18.700;2023-07-13T14:39:44;33.30;99.90
25512;DHT22;13414;44.534;18.700;2023-07-13T14:42:11;33.30;99.90
25512;DHT22;13414;44.534;18.700;2023-07-13T14:44:39;33.20;99.90
25512;DHT22;13414;44.534;18.700;2023-07-13T14:47:07;33.00;99.90
25512;DHT22;13414;44.534;18.700;2023-07-13T14:49:37;33.00;99.90
25512;DHT22;13414;44.534;18.700;2023-07-13T14:52:11;33.10;99.90
25512;DHT22;13414;44.534;18.700;2023-07-13T14:54:39;33.30;99.90
25512;DHT22;13414;44.534;18.700;2023-07-13T14:57:10;33.50;99.90
25512;DHT22;13414;44.534;18.700;2023-07-13T14:59:39;33.70;99.90
25512;DHT22;13414;44.534;18.700;2023-07-13T15:02:15;34.00;99.90
25512;DHT22;13414;44.534;18.700;2023-07-13T15:04:44;34.10;99.90
25512;DHT22;13414;44.534;18.700;2023-07-13T15:07:13;34.00;99.90
25512;DHT22;13414;44.534;18.700;2023-07-13T15:09:43;34.10;99.90
25512;DHT22;13414;44.534;18.700;2023-07-13T15:12:10;34.10;99.90
25512;DHT22;13414;44.534;18.700;2023-07-13T15:14:38;34.30;99.90
25512;DHT22;13414;44.534;18.700;2023-07-13T15:17:08;34.40;99.90
25512;DHT22;13414;44.534;18.700;2023-07-13T15:19:45;34.40;99.90
25512;DHT22;13414;44.534;18.700;2023-07-13T15:22:14;34.30;99.90
25512;DHT22;13414;44.534;18.700;2023-07-13T15:24:41;34.40;99.90
25512;DHT22;13414;44.534;18.700;2023-07-13T15:27:11;34.20;99.90
25512;DHT22;13414;44.534;18.700;2023-07-13T15:29:38;34.20;99.90
25512;DHT22;13414;44.534;18.700;2023-07-13T15:32:12;34.10;99.90
25512;DHT22;13414;44.534;18.700;2023-07-13T15:34:40;34.00;99.90